Time;durP1;ratioP1;P1;durP2;ratioP2;P2;SDS_P1;SDS_P2;PMS_P1;PMS_P2;Temp;Humidity;BMP_temperature;BMP_pressure;BME280_temperature;BME280_humidity;BME280_pressure;Samples;Min_cycle;Max_cycle;Signal;HPM_P1;HPM_P2
2023/06/11 00:03:58;;;;;;;6.50;2.70;;;16.10;73.50;;;;;;10393680;28;20208;-94
2023/06/11 00:09:01;;;;;;;8.43;2.45;;;15.90;67.50;;;;;;10377946;28;20200;-93
2023/06/11 00:14:03;;;;;;;4.15;2.50;;;15.90;80.00;;;;;;10378136;28;20208;-93
2023/06/11 00:19:06;;;;;;;3.70;3.03;;;15.90;72.80;;;;;;10377451;28;20297;-93
2023/06/11 00:24:08;;;;;;;4.13;2.25;;;15.90;66.60;;;;;;10392807;28;20678;-95
2023/06/11 00:29:11;;;;;;;5.60;2.28;;;15.80;70.40;;;;;;10379111;28;20572;-94
2023/06/11 00:34:14;;;;;;;5.68;3.20;;;15.70;72.80;;;;;;10416479;28;20207;-93
2023/06/11 00:39:17;;;;;;;6.13;2.15;;;15.70;72.00;;;;;;10417853;28;20188;-93
2023/06/11 00:44:21;;;;;;;2.70;2.50;;;15.70;65.60;;;;;;10417683;28;20618;-94
2023/06/11 00:49:24;;;;;;;3.38;2.38;;;15.60;81.70;;;;;;10415998;28;20261;-96
2023/06/11 00:54:27;;;;;;;8.35;2.40;;;;;;;;;;10415597;28;20260;-93
2023/06/11 00:59:33;;;;;;;4.95;2.42;;;15.50;74.40;;;;;;10399198;28;20200;-94
2023/06/11 01:04:39;;;;;;;4.50;2.65;;;15.50;73.40;;;;;;10398828;28;20732;-94
2023/06/11 01:09:44;;;;;;;4.30;2.15;;;15.40;74.30;;;;;;10398629;28;20246;-93
2023/06/11 01:14:47;;;;;;;3.95;2.20;;;15.30;74.40;;;;;;10416374;28;20212;-94
2023/06/11 01:19:59;;;;;;;8.48;3.28;;;;;;;;;;10397820;28;20207;-94
2023/06/11 01:25:31;;;;;;;6.82;2.83;;;15.10;68.20;;;;;;10414852;28;20208;-95
2023/06/11 01:30:48;;;;;;;2.65;2.42;;;15.20;72.20;;;;;;10415909;28;20228;-94
2023/06/11 01:35:52;;;;;;;5.97;3.33;;;15.10;70.60;;;;;;10397811;28;20246;-95
2023/06/11 01:40:57;;;;;;;5.97;3.22;;;15.10;76.70;;;;;;10414643;28;20183;-94
2023/06/11 01:46:02;;;;;;;4.43;2.63;;;15.10;75.50;;;;;;10413611;28;20234;-94
2023/06/11 01:51:06;;;;;;;3.17;2.80;;;15.10;80.70;;;;;;10414778;28;20204;-94
2023/06/11 01:56:10;;;;;;;3.67;2.10;;;15.10;81.20;;;;;;10396796;28;20670;-93
2023/06/11 02:01:13;;;;;;;10.55;3.25;;;15.00;70.40;;;;;;10413201;28;20338;-94
2023/06/11 02:06:16;;;;;;;6.57;2.40;;;15.10;79.20;;;;;;10395790;28;20226;-93
2023/06/11 02:11:18;;;;;;;4.32;2.75;;;15.00;72.60;;;;;;10412488;28;20265;-93
2023/06/11 02:16:21;;;;;;;2.75;2.40;;;15.10;75.10;;;;;;10413943;28;20277;-93
2023/06/11 02:21:23;;;;;;;6.63;3.35;;;15.00;73.10;;;;;;10413474;28;20226;-94
2023/06/11 02:26:26;;;;;;;7.32;2.75;;;15.10;76.30;;;;;;10395735;28;20257;-94
2023/06/11 02:31:30;;;;;;;3.42;2.78;;;15.00;69.20;;;;;;10395067;28;20289;-94
2023/06/11 02:36:33;;;;;;;12.10;2.67;;;15.10;75.60;;;;;;10411182;28;20211;-93
2023/06/11 02:41:36;;;;;;;3.28;2.58;;;15.10;70.50;;;;;;10413053;28;20249;-94
2023/06/11 02:46:38;;;;;;;7.30;2.75;;;15.10;76.20;;;;;;10412524;28;20261;-93
2023/06/11 02:51:41;;;;;;;3.00;2.50;;;15.10;72.10;;;;;;10395235;28;20199;-95
2023/06/11 02:56:43;;;;;;;4.93;2.95;;;15.20;73.70;;;;;;10411310;28;20273;-93
2023/06/11 03:01:46;;;;;;;4.15;2.53;;;15.20;76.00;;;;;;10395015;28;20566;-93
2023/06/11 03:06:49;;;;;;;12.50;3.67;;;15.30;76.60;;;;;;10410462;28;20273;-95
2023/06/11 03:11:53;;;;;;;3.75;2.70;;;15.20;71.00;;;;;;10394003;28;20203;-94
2023/06/11 03:16:56;;;;;;;3.30;2.92;;;15.30;71.00;;;;;;10394445;28;20596;-94
2023/06/11 03:21:58;;;;;;;32.00;3.88;;;15.30;68.50;;;;;;10394157;28;20207;-94
2023/06/11 03:27:01;;;;;;;2.70;2.50;;;15.30;75.20;;;;;;10410377;28;20257;-94
2023/06/11 03:32:04;;;;;;;3.60;2.70;;;15.30;74.50;;;;;;10411853;28;20232;-95
2023/06/11 03:37:08;;;;;;;4.68;2.88;;;15.30;72.10;;;;;;10394309;28;20346;-94
2023/06/11 03:42:10;;;;;;;3.80;2.25;;;15.30;74.50;;;;;;10393609;28;20281;-94
2023/06/11 03:47:14;;;;;;;5.97;2.58;;;15.60;77.50;;;;;;10410559;28;20211;-94
2023/06/11 03:52:17;;;;;;;5.97;3.15;;;15.80;84.70;;;;;;10393484;28;20211;-94
2023/06/11 03:57:20;;;;;;;5.57;3.10;;;15.80;68.90;;;;;;10409790;28;20642;-94
2023/06/11 04:02:23;;;;;;;4.90;3.40;;;15.80;70.10;;;;;;10412204;28;20254;-93
2023/06/11 04:07:26;;;;;;;4.90;3.72;;;15.80;69.30;;;;;;10401336;28;20578;-94
2023/06/11 04:12:29;;;;;;;3.50;3.13;;;15.90;76.20;;;;;;10401154;28;20196;-93
2023/06/11 04:17:34;;;;;;;4.22;2.97;;;15.90;76.10;;;;;;10400047;28;20224;-93
2023/06/11 04:22:37;;;;;;;12.85;3.33;;;16.10;75.60;;;;;;10417059;28;20250;-93
2023/06/11 04:27:40;;;;;;;5.22;2.45;;;16.10;69.60;;;;;;10400221;28;20212;-95
2023/06/11 04:32:47;;;;;;;3.50;2.20;;;16.20;78.90;;;;;;10391948;28;20658;-93
2023/06/11 04:37:50;;;;;;;6.05;2.40;;;16.30;72.30;;;;;;10392405;28;20278;-94
2023/06/11 04:42:58;;;;;;;2.90;2.60;;;16.50;66.50;;;;;;10375756;28;20208;-95
2023/06/11 04:48:03;;;;;;;3.25;2.55;;;16.60;74.30;;;;;;10375433;28;20208;-93
2023/06/11 04:53:07;;;;;;;3.55;2.80;;;16.80;75.30;;;;;;10359176;28;20246;-94
2023/06/11 04:58:11;;;;;;;3.20;2.53;;;16.80;68.20;;;;;;10391453;28;20255;-94
2023/06/11 05:03:18;;;;;;;5.90;3.05;;;16.70;71.60;;;;;;10391354;28;20212;-95
2023/06/11 05:08:24;;;;;;;3.97;2.88;;;16.80;74.50;;;;;;10390615;28;20204;-95
2023/06/11 05:13:29;;;;;;;4.45;2.38;;;17.00;73.80;;;;;;10362300;28;20554;-94
2023/06/11 05:18:36;;;;;;;9.32;3.88;;;17.10;70.00;;;;;;10333958;28;20233;-95
2023/06/11 05:23:41;;;;;;;5.53;2.97;;;17.10;65.00;;;;;;10333231;28;20255;-94
2023/06/11 05:28:45;;;;;;;8.07;3.25;;;17.20;75.20;;;;;;10349914;28;20201;-94
2023/06/11 05:33:48;;;;;;;3.05;2.50;;;17.40;69.10;;;;;;10373900;28;20591;-95
2023/06/11 05:38:51;;;;;;;4.78;2.63;;;17.50;68.20;;;;;;10373450;28;20251;-93
2023/06/11 05:43:54;;;;;;;7.20;3.55;;;17.70;62.20;;;;;;10389769;28;20713;-94
2023/06/11 05:48:58;;;;;;;4.72;3.50;;;17.90;65.70;;;;;;10373095;28;20262;-94
2023/06/11 05:54:03;;;;;;;4.72;3.25;;;18.10;63.40;;;;;;10372146;28;20577;-93
2023/06/11 05:59:10;;;;;;;3.58;3.28;;;;;;;;;;10372368;28;20224;-94
2023/06/11 06:04:15;;;;;;;5.10;3.13;;;18.70;99.10;;;;;;10373366;28;20193;-93
2023/06/11 06:09:19;;;;;;;4.63;3.40;;;19.30;74.00;;;;;;10371792;28;20212;-94
2023/06/11 06:14:23;;;;;;;5.53;4.05;;;19.20;66.70;;;;;;10395678;28;20230;-93
2023/06/11 06:19:27;;;;;;;6.90;3.63;;;19.30;56.80;;;;;;10411983;28;20223;-93
2023/06/11 06:24:31;;;;;;;6.25;4.50;;;19.40;63.60;;;;;;10395395;28;20208;-94
2023/06/11 06:29:38;;;;;;;4.43;3.58;;;19.80;66.70;;;;;;10413622;28;20262;-93
2023/06/11 06:34:43;;;;;;;9.80;4.95;;;19.80;67.50;;;;;;10396261;28;20259;-94
2023/06/11 06:39:47;;;;;;;5.07;4.47;;;20.00;59.20;;;;;;10411354;28;20223;-94
2023/06/11 06:44:50;;;;;;;9.10;4.05;;;20.20;59.10;;;;;;10412015;28;20199;-94
2023/06/11 06:49:53;;;;;;;3.60;3.22;;;20.20;63.90;;;;;;10411614;28;20257;-94
2023/06/11 06:54:55;;;;;;;4.25;3.50;;;20.30;59.60;;;;;;10395275;28;20551;-93
2023/06/11 06:59:59;;;;;;;7.43;4.57;;;20.50;60.00;;;;;;10411229;28;20223;-94
2023/06/11 07:05:03;;;;;;;4.43;3.85;;;20.70;57.60;;;;;;10413293;28;20261;-94
2023/06/11 07:10:06;;;;;;;5.55;4.43;;;;;;;;;;10413892;28;20212;-95
2023/06/11 07:15:10;;;;;;;3.70;3.35;;;21.10;54.40;;;;;;10412843;28;20203;-94
2023/06/11 07:20:13;;;;;;;4.53;3.97;;;21.30;60.70;;;;;;10395846;28;20243;-94
2023/06/11 07:25:17;;;;;;;8.57;4.63;;;21.50;60.10;;;;;;10411091;28;20561;-94
2023/06/11 07:30:20;;;;;;;6.28;4.53;;;21.70;59.40;;;;;;10394017;28;20729;-93
2023/06/11 07:35:24;;;;;;;6.32;4.93;;;21.90;58.70;;;;;;10394174;28;20208;-94
2023/06/11 07:40:27;;;;;;;6.80;5.50;;;22.10;56.20;;;;;;10418232;28;20733;-94
2023/06/11 07:45:31;;;;;;;5.20;3.83;;;22.40;54.90;;;;;;10402350;28;20207;-94
2023/06/11 07:50:34;;;;;;;2.80;2.60;;;22.70;54.30;;;;;;10401571;28;20222;-94
2023/06/11 07:55:36;;;;;;;7.50;4.68;;;22.80;53.90;;;;;;10419786;28;20212;-94
2023/06/11 08:00:39;;;;;;;10.18;6.45;;;22.80;52.00;;;;;;10417990;28;20224;-95
2023/06/11 08:05:41;;;;;;;8.07;7.20;;;22.70;52.00;;;;;;10401716;28;20204;-94
2023/06/11 08:10:45;;;;;;;4.85;4.45;;;22.90;51.10;;;;;;10418883;28;20208;-94
2023/06/11 08:15:48;;;;;;;7.57;4.80;;;23.10;51.20;;;;;;10419256;28;20557;-94
2023/06/11 08:20:52;;;;;;;9.88;6.47;;;23.30;49.70;;;;;;10418671;28;20668;-94
2023/06/11 08:25:58;;;;;;;6.78;6.18;;;23.50;49.70;;;;;;10419089;28;20200;-94
2023/06/11 08:31:01;;;;;;;7.00;5.63;;;23.80;49.00;;;;;;10418607;28;20594;-94
2023/06/11 08:36:05;;;;;;;4.65;4.25;;;24.00;47.20;;;;;;10418227;28;20227;-94
2023/06/11 08:41:07;;;;;;;7.85;7.10;;;24.10;44.00;;;;;;10416147;28;20767;-94
2023/06/11 08:46:14;;;;;;;11.57;6.07;;;24.40;44.20;;;;;;10416158;28;20223;-95
2023/06/11 08:51:18;;;;;;;9.57;6.40;;;24.40;39.80;;;;;;10398865;28;20255;-96
2023/06/11 08:56:20;;;;;;;4.25;3.85;;;24.40;43.40;;;;;;10400355;28;20553;-94
2023/06/11 09:01:23;;;;;;;11.15;5.43;;;24.50;49.80;;;;;;10417087;28;20203;-94
2023/06/11 09:06:28;;;;;;;6.20;5.60;;;24.60;36.30;;;;;;10416881;28;20207;-94
2023/06/11 09:11:39;;;;;;;3.97;3.22;;;24.60;34.20;;;;;;10415358;28;20204;-94
2023/06/11 09:16:44;;;;;;;6.78;6.15;;;24.50;34.60;;;;;;10398611;28;20286;-93
2023/06/11 09:21:56;;;;;;;8.93;6.28;;;24.40;34.90;;;;;;10416659;28;20552;-93
2023/06/11 09:26:59;;;;;;;11.48;5.75;;;24.50;32.60;;;;;;10416853;28;20219;-95
2023/06/11 09:32:06;;;;;;;7.65;5.28;;;24.40;32.80;;;;;;10390021;28;20228;-95
2023/06/11 09:37:29;;;;;;;6.00;4.47;;;24.20;32.70;;;;;;10375891;28;20228;-95
2023/06/11 09:42:34;;;;;;;3.35;3.08;;;24.70;31.50;;;;;;10373099;28;20204;-93
2023/06/11 09:47:38;;;;;;;5.63;4.35;;;25.00;31.60;;;;;;10372463;28;20204;-94
2023/06/11 09:52:42;;;;;;;3.85;3.30;;;24.80;27.20;;;;;;10374542;28;20200;-94
2023/06/11 09:57:44;;;;;;;5.13;4.30;;;24.50;27.90;;;;;;10374029;28;20589;-95
2023/06/11 10:02:47;;;;;;;6.80;4.60;;;24.20;27.30;;;;;;10388388;28;20196;-95
2023/06/11 10:08:05;;;;;;;4.97;4.47;;;24.40;27.30;;;;;;10372707;28;20239;-94
2023/06/11 10:13:08;;;;;;;7.43;4.60;;;24.30;24.50;;;;;;10374136;28;20205;-94
2023/06/11 10:18:14;;;;;;;4.95;3.03;;;24.50;24.70;;;;;;10373368;28;20232;-94
2023/06/11 10:23:18;;;;;;;12.68;4.53;;;24.70;22.70;;;;;;10373847;28;20585;-94
2023/06/11 10:28:48;;;;;;;4.20;3.08;;;24.60;19.40;;;;;;10372219;28;20204;-95
2023/06/11 10:33:51;;;;;;;3.80;3.25;;;24.40;21.30;;;;;;10388467;28;20232;-96
2023/06/11 10:39:05;;;;;;;4.53;3.70;;;24.60;19.60;;;;;;10371407;28;20274;-94
2023/06/11 10:44:09;;;;;;;3.38;3.05;;;24.30;20.20;;;;;;10371455;28;20205;-94
2023/06/11 10:49:14;;;;;;;7.80;3.53;;;24.30;21.30;;;;;;10373055;28;20216;-95
2023/06/11 10:54:32;;;;;;;8.20;4.35;;;24.20;22.00;;;;;;10370860;28;20211;-94
2023/06/11 10:59:36;;;;;;;3.58;3.28;;;23.90;19.50;;;;;;10372255;28;20224;-94
2023/06/11 11:04:52;;;;;;;3.63;3.20;;;24.00;21.80;;;;;;10387092;28;20196;-94
2023/06/11 11:09:56;;;;;;;5.10;3.72;;;24.10;22.90;;;;;;10371554;28;20570;-94
2023/06/11 11:14:59;;;;;;;5.78;3.38;;;24.20;20.10;;;;;;10384017;28;20267;-94
2023/06/11 11:20:07;;;;;;;5.55;4.15;;;24.40;20.70;;;;;;10385538;28;20243;-95
2023/06/11 11:25:10;;;;;;;2.17;2.03;;;24.70;19.50;;;;;;10385406;28;20578;-94
2023/06/11 11:30:15;;;;;;;6.13;3.38;;;24.80;24.40;;;;;;10395812;28;20235;-93
2023/06/11 11:35:18;;;;;;;5.63;4.22;;;25.00;19.20;;;;;;10425468;28;20265;-93
2023/06/11 11:40:22;;;;;;;3.45;3.03;;;25.10;18.10;;;;;;10425857;28;20273;-94
2023/06/11 11:45:33;;;;;;;6.13;3.30;;;25.10;21.80;;;;;;10425104;28;20199;-95
2023/06/11 11:50:38;;;;;;;7.32;3.83;;;25.10;15.50;;;;;;10425415;28;20269;-95
2023/06/11 11:55:47;;;;;;;2.65;2.42;;;25.20;12.60;;;;;;10407747;28;20250;-94
2023/06/11 12:01:16;;;;;;;3.42;3.10;;;25.00;18.00;;;;;;10407195;28;20639;-93
2023/06/11 12:06:23;;;;;;;3.05;2.75;;;25.00;15.50;;;;;;10424781;28;20277;-94
2023/06/11 12:11:26;;;;;;;3.75;3.28;;;25.20;23.40;;;;;;10425127;28;20569;-94
2023/06/11 12:16:28;;;;;;;3.05;2.75;;;25.00;13.90;;;;;;10424217;28;20199;-94
2023/06/11 12:21:32;;;;;;;4.47;2.80;;;25.10;21.20;;;;;;10423734;28;20219;-93
2023/06/11 12:26:34;;;;;;;3.55;2.80;;;25.10;19.40;;;;;;10418027;28;20261;-94
2023/06/11 12:31:38;;;;;;;3.05;2.35;;;25.10;17.50;;;;;;10418198;28;20254;-94
2023/06/11 12:36:43;;;;;;;4.25;3.30;;;25.20;18.70;;;;;;10415658;28;20338;-93
2023/06/11 12:41:46;;;;;;;3.72;3.08;;;25.10;17.40;;;;;;10417590;28;20270;-94
2023/06/11 12:46:49;;;;;;;8.88;3.03;;;25.00;12.20;;;;;;10415987;28;20204;-94
2023/06/11 12:51:52;;;;;;;4.55;3.03;;;25.10;11.00;;;;;;10415360;28;20277;-95
2023/06/11 12:56:54;;;;;;;3.45;2.70;;;25.20;9.90;;;;;;10416759;28;20207;-93
2023/06/11 13:01:57;;;;;;;13.05;4.10;;;25.30;12.70;;;;;;10416985;28;20224;-94
2023/06/11 13:07:00;;;;;;;7.00;2.97;;;25.20;9.60;;;;;;10397169;28;20606;-86
2023/06/11 13:12:03;;;;;;;5.82;2.72;;;25.10;7.10;;;;;;10410542;28;20231;-82
2023/06/11 13:17:05;;;;;;;30.33;4.25;;;25.00;6.80;;;;;;10412138;28;20845;-82
2023/06/11 13:22:12;;;;;;;9.70;2.60;;;25.00;9.90;;;;;;10414098;28;20571;-83
2023/06/11 13:27:14;;;;;;;3.92;2.95;;;25.10;6.70;;;;;;10414723;28;20199;-83
2023/06/11 13:32:18;;;;;;;5.13;2.17;;;25.10;6.40;;;;;;10414794;28;20231;-82
2023/06/11 13:37:21;;;;;;;6.45;2.38;;;25.10;10.10;;;;;;10411041;28;20200;-82
2023/06/11 13:42:24;;;;;;;4.90;2.53;;;25.20;10.70;;;;;;10390359;28;20560;-83
2023/06/11 13:47:28;;;;;;;5.30;2.78;;;25.40;10.30;;;;;;10402585;28;20338;-84
2023/06/11 13:52:30;;;;;;;12.52;2.30;;;25.30;4.60;;;;;;10412620;28;20204;-82
2023/06/11 13:57:33;;;;;;;18.88;2.50;;;25.40;14.80;;;;;;10412309;28;20192;-81
2023/06/11 14:02:35;;;;;;;4.18;2.58;;;25.40;9.10;;;;;;10394970;28;20622;-81
2023/06/11 14:07:38;;;;;;;6.15;2.33;;;25.40;8.90;;;;;;10371741;28;20673;-81
2023/06/11 14:12:41;;;;;;;4.90;2.50;;;25.40;7.90;;;;;;10405311;28;20258;-81
2023/06/11 14:17:44;;;;;;;4.93;2.75;;;25.40;7.70;;;;;;10413047;28;20191;-81
2023/06/11 14:22:47;;;;;;;6.05;2.42;;;25.40;11.90;;;;;;10412626;28;20219;-81
2023/06/11 14:27:49;;;;;;;3.55;2.42;;;25.40;5.70;;;;;;10411731;28;20257;-81
2023/06/11 14:32:52;;;;;;;2.97;2.47;;;25.40;15.20;;;;;;10390199;28;20589;-82
2023/06/11 14:37:54;;;;;;;4.93;2.40;;;25.40;7.20;;;;;;10404702;28;20199;-82
2023/06/11 14:43:01;;;;;;;3.05;2.30;;;25.40;15.50;;;;;;10406547;28;20269;-82
2023/06/11 14:48:04;;;;;;;12.02;3.58;;;25.40;4.50;;;;;;10056701;28;9999794;-82
2023/06/11 14:53:07;;;;;;;4.20;2.53;;;25.40;15.10;;;;;;10404230;28;20324;-82
2023/06/11 14:58:10;;;;;;;4.15;2.33;;;25.40;8.60;;;;;;10404516;28;20320;-82
2023/06/11 15:03:13;;;;;;;9.18;2.55;;;25.30;11.20;;;;;;10402316;28;20235;-83
2023/06/11 15:08:16;;;;;;;11.80;2.40;;;25.40;12.50;;;;;;10403431;28;20320;-82
2023/06/11 15:13:18;;;;;;;2.80;2.35;;;25.40;11.90;;;;;;10403473;28;20231;-82
2023/06/11 15:18:21;;;;;;;6.50;2.13;;;25.30;9.00;;;;;;10386699;28;20255;-82
2023/06/11 15:23:24;;;;;;;5.03;1.85;;;25.30;7.50;;;;;;10404712;28;20235;-82
2023/06/11 15:28:26;;;;;;;2.53;2.28;;;25.20;4.40;;;;;;10401519;28;20250;-83
2023/06/11 15:33:29;;;;;;;4.00;1.80;;;25.10;8.10;;;;;;10402507;28;20267;-83
2023/06/11 15:38:31;;;;;;;2.40;2.13;;;25.10;9.40;;;;;;10414069;28;20706;-82
2023/06/11 15:43:34;;;;;;;2.95;2.53;;;25.10;8.70;;;;;;10386322;28;20239;-82
2023/06/11 15:48:37;;;;;;;3.33;2.22;;;25.00;9.40;;;;;;10423484;28;20315;-82
2023/06/11 15:53:39;;;;;;;3.50;2.20;;;25.00;7.30;;;;;;10391956;28;20232;-82
2023/06/11 15:58:42;;;;;;;2.63;2.20;;;25.00;7.70;;;;;;10387215;28;20302;-82
2023/06/11 16:03:44;;;;;;;2.40;1.95;;;25.00;10.20;;;;;;10409361;28;20576;-82
2023/06/11 16:08:47;;;;;;;2.90;2.17;;;25.00;6.20;;;;;;10421076;28;20231;-82
2023/06/11 16:13:49;;;;;;;5.13;2.63;;;25.00;6.30;;;;;;10412919;28;20238;-82
2023/06/11 16:18:52;;;;;;;3.97;2.10;;;25.10;4.30;;;;;;10395782;28;20674;-82
2023/06/11 16:23:54;;;;;;;2.53;1.80;;;25.10;3.80;;;;;;10412438;28;20616;-82
2023/06/11 16:28:57;;;;;;;3.70;2.00;;;25.20;3.60;;;;;;10412820;28;20251;-82
2023/06/11 16:34:00;;;;;;;3.75;2.55;;;25.30;2.70;;;;;;10395009;28;20247;-82
2023/06/11 16:39:03;;;;;;;2.22;1.90;;;25.40;6.30;;;;;;10413105;28;20255;-82
2023/06/11 16:44:26;;;;;;;2.88;2.60;;;25.40;6.00;;;;;;10398301;28;20235;-82
2023/06/11 16:49:28;;;;;;;9.55;2.28;;;25.40;5.20;;;;;;10412732;28;20247;-83
2023/06/11 16:54:31;;;;;;;15.77;2.78;;;25.20;1.20;;;;;;10412330;28;20627;-82
2023/06/11 16:59:35;;;;;;;4.40;1.88;;;25.00;1.10;;;;;;10410844;28;20263;-83
2023/06/11 17:04:37;;;;;;;6.95;2.10;;;25.10;9.10;;;;;;10411660;28;20235;-82
2023/06/11 17:09:42;;;;;;;6.88;2.22;;;25.00;6.60;;;;;;10411913;28;20262;-83
2023/06/11 17:14:45;;;;;;;4.05;1.98;;;24.70;1.70;;;;;;10411819;28;20685;-83
2023/06/11 17:19:47;;;;;;;10.00;2.78;;;24.60;3.50;;;;;;10393212;28;20968;-83
2023/06/11 17:24:50;;;;;;;6.38;2.40;;;24.50;7.80;;;;;;10393573;28;20243;-82
2023/06/11 17:29:53;;;;;;;6.05;2.28;;;24.40;7.80;;;;;;10411231;28;20263;-83
2023/06/11 17:34:56;;;;;;;7.18;2.08;;;24.30;8.40;;;;;;10408330;28;20227;-82
2023/06/11 17:40:04;;;;;;;6.30;3.13;;;24.20;5.40;;;;;;10409121;28;20655;-82
2023/06/11 17:45:10;;;;;;;6.10;2.30;;;24.10;7.10;;;;;;10412126;28;20258;-82
2023/06/11 17:50:12;;;;;;;6.35;2.72;;;23.90;8.40;;;;;;10410632;28;20301;-83
2023/06/11 17:55:15;;;;;;;7.32;2.38;;;23.90;15.50;;;;;;10400700;28;20665;-83
2023/06/11 18:00:18;;;;;;;7.65;3.30;;;23.70;11.30;;;;;;10414394;28;20251;-83
2023/06/11 18:05:21;;;;;;;7.57;2.35;;;23.60;13.70;;;;;;10408454;28;20239;-83
2023/06/11 18:10:23;;;;;;;7.95;2.75;;;23.40;12.50;;;;;;10409603;28;20669;-83
2023/06/11 18:15:26;;;;;;;5.90;2.42;;;23.20;10.00;;;;;;10056221;28;10000314;-84
2023/06/11 18:20:37;;;;;;;4.63;2.45;;;22.90;12.70;;;;;;10404112;28;20313;-83
2023/06/11 18:25:39;;;;;;;3.28;2.63;;;22.50;8.50;;;;;;10402605;28;20223;-83
2023/06/11 18:30:42;;;;;;;5.45;2.50;;;22.30;9.80;;;;;;10388723;28;20313;-83
2023/06/11 18:35:45;;;;;;;4.10;2.85;;;22.10;13.40;;;;;;10403643;28;20293;-83
2023/06/11 18:40:48;;;;;;;6.97;3.95;;;21.80;17.50;;;;;;10404159;28;20247;-84
2023/06/11 18:45:50;;;;;;;5.60;2.20;;;21.60;13.40;;;;;;10405976;28;20231;-83
2023/06/11 18:50:53;;;;;;;4.07;2.03;;;21.40;17.20;;;;;;10404269;28;20689;-83
2023/06/11 18:55:55;;;;;;;10.52;2.63;;;21.20;18.60;;;;;;10403004;28;20297;-83
2023/06/11 19:00:58;;;;;;;13.40;2.88;;;20.90;16.60;;;;;;10403431;28;20247;-83
2023/06/11 19:06:01;;;;;;;4.35;2.47;;;20.30;16.90;;;;;;10404204;28;20653;-83
2023/06/11 19:11:03;;;;;;;37.63;5.95;;;19.90;16.90;;;;;;10403354;28;20305;-83
2023/06/11 19:16:06;;;;;;;13.50;2.20;;;19.50;17.40;;;;;;10414829;28;20245;-84
2023/06/11 19:21:08;;;;;;;2.92;1.85;;;19.20;16.70;;;;;;10446387;28;20262;-83
2023/06/11 19:26:15;;;;;;;7.78;3.03;;;18.90;17.40;;;;;;10435164;28;20981;-83
2023/06/11 19:31:18;;;;;;;3.80;1.85;;;18.60;19.10;;;;;;10403774;28;20740;-83
2023/06/11 19:36:20;;;;;;;5.65;2.88;;;18.50;21.10;;;;;;10412623;28;20642;-83
2023/06/11 19:41:26;;;;;;;3.95;1.70;;;18.30;20.70;;;;;;10394075;28;20258;-83
2023/06/11 19:46:34;;;;;;;2.40;1.70;;;18.10;22.00;;;;;;10414580;28;20236;-83
2023/06/11 19:51:38;;;;;;;5.13;2.33;;;17.90;20.50;;;;;;10411613;28;20231;-82
2023/06/11 19:56:42;;;;;;;4.47;2.00;;;16.40;17.60;;;;;;10410617;28;20228;-83
2023/06/11 20:01:44;;;;;;;5.95;2.45;;;16.20;23.50;;;;;;10396374;28;20309;-82
2023/06/11 20:06:47;;;;;;;4.72;1.70;;;16.50;29.30;;;;;;10414179;28;20292;-83
2023/06/11 20:11:53;;;;;;;8.98;2.47;;;16.40;26.40;;;;;;10414696;28;20207;-83
2023/06/11 20:16:56;;;;;;;11.02;2.30;;;16.30;26.40;;;;;;10416670;28;20872;-83
2023/06/11 20:22:00;;;;;;;2.55;1.70;;;16.20;31.30;;;;;;10412695;28;20262;-82
2023/06/11 20:27:03;;;;;;;4.50;2.17;;;16.30;36.40;;;;;;10396392;28;20640;-82
2023/06/11 20:32:06;;;;;;;5.60;2.15;;;16.00;32.30;;;;;;10413214;28;20614;-83
2023/06/11 20:37:09;;;;;;;9.63;2.53;;;15.60;30.00;;;;;;10394600;28;20239;-83
2023/06/11 20:42:13;;;;;;;4.70;1.92;;;15.70;33.50;;;;;;10394576;28;20262;-83
2023/06/11 20:47:16;;;;;;;3.95;1.85;;;15.50;34.70;;;;;;10412080;28;20756;-83
2023/06/11 20:52:19;;;;;;;4.45;2.10;;;15.40;38.60;;;;;;10412899;28;20289;-84
2023/06/11 20:57:22;;;;;;;5.60;2.10;;;15.60;44.70;;;;;;10410465;28;20308;-83
2023/06/11 21:02:24;;;;;;;5.78;2.00;;;15.30;43.40;;;;;;10405776;28;20255;-83
2023/06/11 21:07:27;;;;;;;14.00;2.92;;;15.50;72.20;;;;;;10384891;28;20294;-83
2023/06/11 21:12:29;;;;;;;7.38;2.13;;;15.50;67.30;;;;;;10386486;28;20227;-83
2023/06/11 21:17:32;;;;;;;3.90;2.22;;;15.40;57.10;;;;;;10392728;28;20234;-83
2023/06/11 21:22:35;;;;;;;6.78;2.35;;;15.30;58.60;;;;;;10410328;28;20646;-83
2023/06/11 21:27:38;;;;;;;7.45;2.35;;;15.50;75.40;;;;;;10409070;28;20200;-83
2023/06/11 21:32:41;;;;;;;5.10;2.47;;;15.40;74.90;;;;;;10367528;28;20264;-83
2023/06/11 21:37:43;;;;;;;6.05;2.17;;;15.00;59.30;;;;;;10368504;28;20243;-83
2023/06/11 21:42:46;;;;;;;3.03;1.88;;;14.80;56.20;;;;;;10368351;28;20263;-83
2023/06/11 21:47:48;;;;;;;5.15;2.03;;;15.10;73.60;;;;;;10369084;28;20232;-82
2023/06/11 21:52:53;;;;;;;4.22;2.63;;;15.20;77.80;;;;;;10367960;28;20244;-83
2023/06/11 21:57:56;;;;;;;4.35;1.90;;;15.20;79.60;;;;;;10366890;28;20232;-83
2023/06/11 22:02:58;;;;;;;4.85;1.92;;;14.70;53.30;;;;;;10368055;28;20962;-83
2023/06/11 22:08:02;;;;;;;4.55;2.42;;;14.40;57.80;;;;;;10365896;28;20235;-83
2023/06/11 22:13:06;;;;;;;4.35;2.70;;;14.10;53.70;;;;;;10364174;28;20228;-83
2023/06/11 22:18:08;;;;;;;14.27;2.08;;;14.20;65.40;;;;;;10368542;28;20267;-83
2023/06/11 22:23:12;;;;;;;3.40;2.67;;;14.00;66.60;;;;;;10377168;28;20251;-83
2023/06/11 22:28:15;;;;;;;3.58;2.70;;;13.80;64.60;;;;;;10407538;28;20265;-83
2023/06/11 22:33:18;;;;;;;8.15;3.22;;;13.90;67.10;;;;;;10421378;28;20258;-83
2023/06/11 22:38:20;;;;;;;4.10;2.55;;;13.90;66.60;;;;;;10408691;28;20238;-83
2023/06/11 22:43:23;;;;;;;7.20;2.95;;;13.70;65.80;;;;;;10409268;28;20255;-83
2023/06/11 22:48:26;;;;;;;2.70;2.33;;;13.60;70.90;;;;;;10408002;28;20204;-83
2023/06/11 22:53:28;;;;;;;3.67;2.40;;;13.50;71.50;;;;;;10407392;28;20238;-84
2023/06/11 22:58:31;;;;;;;5.75;3.10;;;13.60;72.60;;;;;;10437968;28;20254;-84
2023/06/11 23:03:33;;;;;;;7.88;2.75;;;13.60;73.20;;;;;;10408251;28;20255;-83
2023/06/11 23:08:36;;;;;;;2.58;1.90;;;13.30;68.70;;;;;;10406804;28;20235;-83
2023/06/11 23:13:41;;;;;;;4.55;2.42;;;13.30;92.30;;;;;;10408003;28;20300;-83
2023/06/11 23:18:44;;;;;;;3.05;1.80;;;13.50;83.70;;;;;;10406788;28;20293;-83
2023/06/11 23:23:47;;;;;;;5.70;3.17;;;13.60;91.80;;;;;;10406957;28;20620;-84
2023/06/11 23:28:50;;;;;;;3.95;2.30;;;13.30;78.20;;;;;;10407439;28;20227;-83
2023/06/11 23:33:53;;;;;;;4.55;2.63;;;13.30;88.30;;;;;;10406269;28;20250;-83
2023/06/11 23:38:56;;;;;;;2.45;2.25;;;13.10;86.70;;;;;;10407027;28;20231;-84
2023/06/11 23:43:58;;;;;;;3.00;2.38;;;13.20;90.00;;;;;;10406786;28;20618;-83
2023/06/11 23:49:02;;;;;;;3.78;2.30;;;13.40;92.00;;;;;;10407285;28;20273;-83
2023/06/11 23:54:05;;;;;;;2.75;2.55;;;13.50;92.90;;;;;;10389578;28;20301;-83
2023/06/11 23:59:07;;;;;;;4.70;2.00;;;13.50;90.00;;;;;;10388324;28;20208;-83
